createdAt,value
2023-11-10T04:41:12.278Z,101126.91
2023-11-10T04:43:52.685Z,101123.53
2023-11-10T04:46:40.232Z,101122.75
2023-11-10T04:49:20.717Z,101127.09
2023-11-10T04:52:07.243Z,101129.53
2023-11-10T04:54:55.260Z,101135.53
2023-11-10T04:57:42.317Z,101134.38
2023-11-10T05:00:25.037Z,101131.00
2023-11-10T05:03:14.283Z,101125.09
2023-11-10T05:06:01.247Z,101128.53
2023-11-10T05:08:48.264Z,101130.81
2023-11-10T05:11:36.170Z,101132.53
2023-11-10T05:14:23.266Z,101126.44
2023-11-10T05:17:03.734Z,101133.22
2023-11-10T05:19:50.233Z,101131.06
2023-11-10T05:22:37.259Z,101140.44
2023-11-10T05:25:26.264Z,101137.13
2023-11-10T05:28:06.578Z,101143.88
2023-11-10T05:30:53.228Z,101130.16
2023-11-10T05:33:33.598Z,101134.09
2023-11-10T05:36:20.292Z,101123.13
2023-11-10T05:39:00.932Z,101138.38
2023-11-10T05:41:50.226Z,101138.19
2023-11-10T05:44:37.233Z,101135.88
2023-11-10T05:47:17.301Z,101147.75
2023-11-10T05:50:04.188Z,101141.72
2023-11-10T05:52:51.227Z,101146.19
2023-11-10T05:55:33.917Z,101149.75
2023-11-10T05:58:21.192Z,101143.03
2023-11-10T06:01:01.704Z,101144.59
2023-11-10T06:03:49.203Z,101144.16
2023-11-10T06:06:29.744Z,101145.25
2023-11-10T06:09:16.163Z,101145.84
2023-11-10T06:11:56.943Z,101142.47
2023-11-10T06:14:45.191Z,101145.81
2023-11-10T06:17:25.706Z,101147.28
2023-11-10T06:20:12.136Z,101154.22
2023-11-10T06:22:53.524Z,101155.56
2023-11-10T06:25:40.147Z,101160.94
2023-11-10T06:28:27.100Z,101160.78
2023-11-10T06:31:14.157Z,101157.03
2023-11-10T06:33:54.599Z,101150.09
2023-11-10T06:36:41.139Z,101154.91
2023-11-10T06:39:21.501Z,101145.75
2023-11-10T06:42:08.138Z,101153.09
2023-11-10T06:44:56.398Z,101142.59
2023-11-10T06:47:37.247Z,101142.84
2023-11-10T06:50:17.612Z,101141.69
2023-11-10T06:53:04.111Z,101143.72
2023-11-10T06:55:44.555Z,101149.47
2023-11-10T06:58:31.080Z,101144.53
2023-11-10T07:01:18.535Z,101136.84
2023-11-10T07:03:59.095Z,101131.03
2023-11-10T07:06:46.398Z,101129.53
2023-11-10T07:09:27.218Z,101130.56
2023-11-10T07:12:16.082Z,101126.31
2023-11-10T07:14:57.058Z,101124.28
2023-11-10T07:17:45.230Z,101126.28
2023-11-10T07:20:26.088Z,101122.94
2023-11-10T07:23:13.112Z,101112.94
2023-11-10T07:25:53.879Z,101109.22
2023-11-10T07:28:48.049Z,101105.84
2023-11-10T07:31:35.074Z,101104.75
2023-11-10T07:34:22.131Z,101107.41
2023-11-10T07:37:02.522Z,101110.69
2023-11-10T07:39:49.035Z,101118.66
2023-11-10T07:42:37.482Z,101114.63
2023-11-10T07:45:22.080Z,101117.59
2023-11-10T07:48:09.110Z,101116.84
2023-11-10T07:50:49.163Z,101107.78
2023-11-10T07:53:36.005Z,101112.22
2023-11-10T07:56:16.127Z,101113.38
2023-11-10T07:59:03.056Z,101115.47
2023-11-10T08:01:43.295Z,101109.31
2023-11-10T08:04:30.224Z,101112.44
2023-11-10T08:07:11.433Z,101104.91
2023-11-10T08:09:59.626Z,101109.94
2023-11-10T08:12:47.118Z,101107.97
2023-11-10T08:15:27.415Z,101108.72
2023-11-10T08:18:15.031Z,101107.66
2023-11-10T08:20:55.549Z,101105.50
2023-11-10T08:23:42.992Z,101100.81
2023-11-10T08:26:23.394Z,101110.91
2023-11-10T08:29:12.013Z,101111.00
2023-11-10T08:31:53.912Z,101100.94
2023-11-10T08:34:41.037Z,101103.13
2023-11-10T08:37:27.964Z,101090.53
2023-11-10T08:40:16.960Z,101094.88
2023-11-10T08:43:10.998Z,101085.00
2023-11-10T08:45:51.495Z,101081.94
2023-11-10T08:48:37.961Z,101084.56
2023-11-10T08:51:18.456Z,101072.53
2023-11-10T08:54:04.980Z,101069.25
2023-11-10T08:56:52.482Z,101069.22
2023-11-10T08:59:32.006Z,101062.00
2023-11-10T09:02:19.983Z,101049.53
2023-11-10T09:05:06.982Z,101046.81
2023-11-10T09:07:53.990Z,101036.69
2023-11-10T09:10:40.897Z,101024.75
2023-11-10T09:13:21.373Z,101030.59
2023-11-10T09:16:08.077Z,101030.00
2023-11-10T09:18:55.005Z,101023.53
2023-11-10T09:21:49.113Z,101017.38
2023-11-10T09:24:29.378Z,101021.16
2023-11-10T09:27:15.943Z,101023.06
2023-11-10T09:29:56.289Z,101019.25
2023-11-10T09:32:42.922Z,101017.53
2023-11-10T09:35:30.014Z,101008.72
2023-11-10T09:38:16.904Z,100992.53
2023-11-10T09:40:59.008Z,100992.91
2023-11-10T09:43:45.978Z,100989.72
2023-11-10T09:46:26.864Z,100984.88
2023-11-10T09:49:13.967Z,100976.53
2023-11-10T09:52:01.967Z,100981.63
2023-11-10T09:54:50.987Z,100967.63
2023-11-10T09:57:32.244Z,100959.91
2023-11-10T10:00:20.913Z,100964.84
2023-11-10T10:03:07.985Z,100960.78
2023-11-10T10:05:58.908Z,100960.63
2023-11-10T10:08:41.045Z,100957.03
2023-11-10T10:11:27.893Z,100944.53
2023-11-10T10:14:15.890Z,100948.13
2023-11-10T10:17:00.074Z,100942.28
2023-11-10T10:19:46.961Z,100949.31
2023-11-10T10:22:40.005Z,100944.13
2023-11-10T10:25:27.959Z,100934.25
2023-11-10T10:28:14.868Z,100924.38
2023-11-10T10:31:03.004Z,100925.72
2023-11-10T10:33:43.712Z,100912.00
2023-11-10T10:36:30.851Z,100916.81
2023-11-10T10:39:15.095Z,100913.25
2023-11-10T10:42:01.868Z,100906.25
2023-11-10T10:44:41.979Z,100914.75
2023-11-10T10:47:29.866Z,100899.88
2023-11-10T10:50:13.997Z,100896.91
2023-11-10T10:53:03.910Z,100895.38
2023-11-10T10:55:54.222Z,100900.19
2023-11-10T10:58:33.858Z,100896.72
2023-11-10T11:01:17.807Z,100894.94
2023-11-10T11:16:35.590Z,100880.88
2023-11-10T11:19:27.200Z,100876.66
2023-11-10T11:22:15.582Z,100880.44
2023-11-10T11:25:16.637Z,100872.84
2023-11-10T11:28:06.732Z,100873.75
2023-11-10T11:30:54.699Z,100871.22
2023-11-10T11:33:34.802Z,100867.94
2023-11-10T11:36:23.681Z,100872.63
2023-11-10T11:39:04.028Z,100873.97
2023-11-10T11:41:55.666Z,100876.69
2023-11-10T11:44:40.765Z,100866.09
2023-11-10T11:47:27.661Z,100863.81
2023-11-10T11:50:08.007Z,100866.44
2023-11-10T11:52:54.559Z,100851.84
2023-11-10T11:55:41.556Z,100856.63
2023-11-10T11:58:29.640Z,100842.25
2023-11-10T12:01:17.571Z,100837.81
2023-11-10T12:03:58.372Z,100841.22
2023-11-10T12:06:50.657Z,100831.88
2023-11-10T12:09:30.869Z,100828.41
2023-11-10T12:12:18.530Z,100819.66
2023-11-10T12:15:06.579Z,100817.75
2023-11-10T12:17:53.477Z,100817.31
2023-11-10T12:20:40.510Z,100813.03
2023-11-10T12:23:20.595Z,100805.84
2023-11-10T12:26:07.585Z,100800.25
2023-11-10T12:28:49.718Z,100797.72
2023-11-10T12:31:36.559Z,100799.44
2023-11-10T12:34:16.645Z,100796.16
2023-11-10T12:37:09.623Z,100789.88
2023-11-10T12:39:57.525Z,100773.34
2023-11-10T12:42:38.301Z,100781.19
2023-11-10T12:45:27.611Z,100766.63
2023-11-10T12:48:21.521Z,100762.25
2023-11-10T12:51:09.525Z,100758.44
2023-11-10T12:54:06.654Z,100764.72
2023-11-10T12:56:47.552Z,100758.13
2023-11-10T12:59:37.650Z,100747.47
2023-11-10T13:02:17.504Z,100736.59
2023-11-10T13:05:04.477Z,100731.34
2023-11-10T13:07:52.552Z,100726.97
2023-11-10T13:10:39.522Z,100726.25
2023-11-10T13:13:19.805Z,100732.91
2023-11-10T13:16:06.793Z,100731.00
2023-11-10T13:18:53.667Z,100719.50
2023-11-10T13:21:33.995Z,100726.88
2023-11-10T13:24:21.480Z,100705.56
2023-11-10T13:27:13.301Z,100702.47
2023-11-10T13:30:00.434Z,100697.47
2023-11-10T13:32:51.523Z,100695.28
2023-11-10T13:35:38.462Z,100705.34
2023-11-10T13:38:27.628Z,100710.75
2023-11-10T13:41:15.519Z,100712.06
2023-11-10T13:44:02.492Z,100694.09
2023-11-10T13:46:42.639Z,100698.88
2023-11-10T13:49:29.463Z,100676.25
2023-11-10T13:52:11.389Z,100677.41
2023-11-10T13:54:58.469Z,100674.38
2023-11-10T13:57:38.576Z,100662.44
2023-11-10T14:00:27.457Z,100648.50
2023-11-10T14:03:08.895Z,100648.84
2023-11-10T14:05:55.390Z,100646.06
2023-11-10T14:08:35.690Z,100652.44
2023-11-10T14:11:22.471Z,100652.28
2023-11-10T14:14:09.510Z,100640.56
2023-11-10T14:16:56.498Z,100627.97
2023-11-10T14:19:36.390Z,100632.22
2023-11-10T14:22:25.114Z,100631.72
2023-11-10T14:25:05.412Z,100635.53
2023-11-10T14:27:45.874Z,100633.88
2023-11-10T14:30:32.352Z,100634.97
2023-11-10T14:33:19.480Z,100638.53
2023-11-10T14:36:02.818Z,100631.34
2023-11-10T14:38:56.346Z,100630.94
2023-11-10T14:41:36.577Z,100633.25
2023-11-10T14:44:23.445Z,100642.28
2023-11-10T14:47:19.401Z,100638.91
2023-11-10T14:50:14.825Z,100638.56
2023-11-10T14:52:55.463Z,100638.47
2023-11-10T14:55:42.363Z,100624.09
2023-11-10T14:58:22.476Z,100622.84
2023-11-10T15:01:10.483Z,100627.00
2023-11-10T15:03:51.858Z,100619.59
2023-11-10T15:06:40.450Z,100615.75
2023-11-10T15:09:21.579Z,100608.34
2023-11-10T15:12:08.463Z,100600.75
2023-11-10T15:15:02.302Z,100611.09
2023-11-10T15:17:49.369Z,100609.00
2023-11-10T15:20:29.453Z,100601.47
2023-11-10T15:23:17.413Z,100595.34
2023-11-10T15:26:00.297Z,100586.56
2023-11-10T15:28:50.243Z,100581.91
2023-11-10T15:31:36.390Z,100573.00
2023-11-10T15:34:27.363Z,100572.19
2023-11-10T15:37:15.366Z,100581.00
2023-11-10T15:40:02.368Z,100574.28
2023-11-10T15:42:49.342Z,100572.31
2023-11-10T15:45:39.401Z,100565.81
2023-11-10T15:48:36.964Z,100560.78
2023-11-10T15:51:29.792Z,100557.47
2023-11-10T15:54:13.314Z,100557.81
2023-11-10T15:57:00.983Z,100549.13
2023-11-10T15:59:41.305Z,100541.31
2023-11-10T16:02:34.585Z,100542.69
2023-11-10T16:05:14.627Z,100520.44
2023-11-10T16:08:01.323Z,100528.22
2023-11-10T16:10:41.413Z,100512.44
2023-11-10T16:13:29.248Z,100505.38
2023-11-10T16:16:23.325Z,100505.16
2023-11-10T16:19:10.309Z,100505.63
2023-11-10T16:21:50.442Z,100512.59
2023-11-10T16:24:37.315Z,100509.22
2023-11-10T16:27:17.332Z,100511.28
2023-11-10T16:30:04.301Z,100493.69
2023-11-10T16:32:51.279Z,100494.13
2023-11-10T16:35:38.227Z,100492.16
2023-11-10T16:38:25.527Z,100498.53
2023-11-10T16:41:07.213Z,100509.91
2023-11-10T16:43:49.126Z,100492.44
2023-11-10T16:46:36.412Z,100501.56
2023-11-10T16:49:26.491Z,100511.91
2023-11-10T16:52:08.111Z,100513.88
2023-11-10T16:54:55.319Z,100518.00
2023-11-10T16:57:38.017Z,100513.59
2023-11-10T17:00:33.780Z,100499.25
2023-11-10T17:03:20.623Z,100489.19
2023-11-10T17:06:07.184Z,100485.34
2023-11-10T17:08:47.335Z,100484.63
2023-11-10T17:11:34.215Z,100473.88
2023-11-10T17:14:21.185Z,100482.31
2023-11-10T17:17:08.990Z,100480.88
2023-11-10T17:19:50.289Z,100488.13
2023-11-10T17:22:37.185Z,100487.03
2023-11-10T17:25:17.320Z,100486.22
2023-11-10T17:28:04.209Z,100490.88
2023-11-10T17:30:45.267Z,100484.50
2023-11-10T17:33:32.212Z,100491.31
2023-11-10T17:36:16.241Z,100496.34
2023-11-10T17:39:03.204Z,100502.59
2023-11-10T17:41:43.362Z,100501.34
2023-11-10T17:44:30.194Z,100506.66
2023-11-10T17:47:10.654Z,100500.72
2023-11-10T17:49:57.160Z,100503.16
2023-11-10T17:52:44.172Z,100511.31
2023-11-10T17:55:31.524Z,100500.72
2023-11-10T17:58:11.202Z,100481.56
2023-11-10T18:00:52.658Z,100477.63
2023-11-10T18:03:39.233Z,100478.59
2023-11-10T18:06:28.136Z,100480.56
2023-11-10T18:09:13.613Z,100474.13
2023-11-10T18:12:00.134Z,100469.41
2023-11-10T18:14:40.210Z,100469.69
2023-11-10T18:17:28.196Z,100458.69
2023-11-10T18:20:08.229Z,100467.56
2023-11-10T18:22:55.122Z,100468.13
2023-11-10T18:25:42.215Z,100463.97
2023-11-10T18:28:29.078Z,100454.94
2023-11-10T18:31:09.451Z,100452.88
2023-11-10T18:33:56.162Z,100450.09
2023-11-10T18:36:36.223Z,100450.91
2023-11-10T18:39:23.210Z,100439.94
2023-11-10T18:42:04.636Z,100438.09
2023-11-10T19:18:00.184Z,100415.66
2023-11-10T19:20:40.505Z,100403.63
2023-11-10T19:23:27.019Z,100391.72
2023-11-10T19:26:08.829Z,100382.25
2023-11-10T19:28:58.088Z,100378.44
2023-11-10T19:31:38.702Z,100370.94
2023-11-10T19:34:25.124Z,100365.84
2023-11-10T19:37:05.491Z,100366.22
2023-11-10T19:39:52.097Z,100350.13
2023-11-10T19:42:32.448Z,100348.88
2023-11-10T19:45:20.004Z,100343.44
2023-11-10T19:48:07.168Z,100343.09
2023-11-10T19:50:47.007Z,100345.28
2023-11-10T19:53:34.376Z,100336.81
2023-11-10T19:56:14.075Z,100324.88
2023-11-10T20:01:44.009Z,100323.75
2023-11-10T20:04:24.404Z,100330.78
2023-11-10T20:07:11.007Z,100334.75
2023-11-10T20:09:51.373Z,100314.25
2023-11-10T20:12:38.032Z,100305.69
2023-11-10T20:15:19.199Z,100301.28
2023-11-10T20:18:06.063Z,100308.03
2023-11-10T20:20:47.278Z,100299.69
2023-11-10T20:23:33.944Z,100287.22
2023-11-10T20:26:21.024Z,100291.22
2023-11-10T20:29:07.973Z,100271.69
2023-11-10T20:31:48.580Z,100265.25
2023-11-10T20:34:41.938Z,100274.38
2023-11-10T20:37:28.943Z,100272.06
2023-11-10T20:40:17.990Z,100258.63
2023-11-10T20:42:59.147Z,100251.91
2023-11-10T20:45:49.002Z,100255.25
2023-11-10T20:48:42.955Z,100260.09
2023-11-10T20:51:24.344Z,100247.81
2023-11-10T20:54:11.144Z,100260.63
2023-11-10T20:56:51.279Z,100246.84
2023-11-10T20:59:38.925Z,100239.53
2023-11-10T21:02:19.997Z,100233.16
2023-11-10T21:05:06.998Z,100220.81
2023-11-10T21:07:53.913Z,100209.19
2023-11-10T21:10:34.151Z,100198.56
2023-11-10T21:13:20.947Z,100197.84
2023-11-10T21:16:01.052Z,100196.56
2023-11-10T21:18:47.964Z,100199.34
2023-11-10T21:21:34.932Z,100205.81
2023-11-10T21:24:16.295Z,100211.38
2023-11-10T21:27:02.903Z,100208.50
2023-11-10T21:29:43.243Z,100212.09
2023-11-10T21:32:30.005Z,100210.47
2023-11-10T21:35:16.951Z,100205.81
2023-11-10T21:37:57.194Z,100200.88
2023-11-10T21:40:48.890Z,100212.38
2023-11-10T21:43:29.087Z,100216.47
2023-11-10T21:46:15.893Z,100205.03
2023-11-10T21:49:09.836Z,100203.41
2023-11-10T21:51:56.886Z,100194.59
2023-11-10T21:54:36.989Z,100180.59
2023-11-10T21:57:23.933Z,100188.41
2023-11-10T22:00:04.052Z,100183.16
2023-11-10T22:02:50.889Z,100174.72
2023-11-10T22:05:37.847Z,100161.28
2023-11-10T22:08:19.497Z,100171.13
2023-11-10T22:11:05.827Z,100164.50
2023-11-10T22:13:52.795Z,100159.66
2023-11-10T22:16:33.137Z,100161.16
2023-11-10T22:19:19.884Z,100163.31
2023-11-10T22:22:04.113Z,100157.31
2023-11-10T22:24:58.916Z,100156.25
2023-11-10T22:27:39.652Z,100148.56
2023-11-10T22:30:26.848Z,100146.16
2023-11-10T22:33:14.932Z,100133.75
2023-11-10T22:36:01.813Z,100134.66
2023-11-10T22:38:48.895Z,100137.31
2023-11-10T22:41:29.029Z,100135.38
2023-11-10T22:44:15.797Z,100134.84
2023-11-10T22:47:02.785Z,100129.44
2023-11-10T22:49:49.970Z,100130.25
2023-11-10T22:52:29.819Z,100118.38
2023-11-10T22:55:18.258Z,100113.03
2023-11-10T22:57:57.930Z,100102.94
2023-11-10T23:00:51.813Z,100087.63
2023-11-10T23:03:38.815Z,100082.34
2023-11-10T23:18:20.912Z,100057.84
2023-11-10T23:21:01.517Z,100047.44
2023-11-10T23:23:47.918Z,100048.44
2023-11-10T23:26:34.984Z,100060.50
2023-11-10T23:29:15.903Z,100061.94
2023-11-10T23:31:56.243Z,100065.59
2023-11-10T23:34:42.898Z,100055.44
2023-11-10T23:37:23.273Z,100045.59
2023-11-10T23:40:09.898Z,100027.41
2023-11-10T23:42:56.843Z,100031.53
2023-11-10T23:45:36.969Z,100016.22
2023-11-10T23:48:25.075Z,100011.72
2023-11-10T23:51:04.940Z,100007.13
2023-11-10T23:53:52.841Z,100001.84
2023-11-10T23:56:39.837Z,99997.56
2023-11-10T23:59:26.837Z,99998.19
